Time;durP1;ratioP1;P1;durP2;ratioP2;P2;SDS_P1;SDS_P2;PMS_P1;PMS_P2;Temp;Humidity;BMP_temperature;BMP_pressure;BME280_temperature;BME280_humidity;BME280_pressure;Samples;Min_cycle;Max_cycle;Signal;HPM_P1;HPM_P2
2023/10/27 00:02:21;;;;;;;1.52;1.10;;;25.40;58.50;;;;;;5093417;28;20529;-68
2023/10/27 00:04:47;;;;;;;1.08;1.08;;;25.50;58.40;;;;;;5093210;28;20139;-68
2023/10/27 00:07:13;;;;;;;2.35;1.38;;;25.40;58.40;;;;;;5110105;28;20517;-68
2023/10/27 00:09:39;;;;;;;2.10;1.05;;;25.50;58.30;;;;;;5109887;28;20040;-68
2023/10/27 00:12:06;;;;;;;0.93;0.93;;;25.50;58.40;;;;;;5076177;28;20555;-68
2023/10/27 00:14:33;;;;;;;1.98;1.20;;;25.50;58.50;;;;;;5109672;28;20059;-68
2023/10/27 00:17:00;;;;;;;1.00;0.98;;;25.40;58.50;;;;;;5109989;28;20113;-67
2023/10/27 00:19:26;;;;;;;1.77;1.10;;;25.40;58.60;;;;;;5106976;28;20043;-68
2023/10/27 00:21:52;;;;;;;0.90;0.90;;;25.40;58.60;;;;;;5112185;28;20032;-68
2023/10/27 00:24:18;;;;;;;1.23;1.10;;;25.50;58.60;;;;;;5109881;28;20247;-68
2023/10/27 00:26:44;;;;;;;1.65;0.93;;;25.40;58.50;;;;;;5111996;28;20114;-68
2023/10/27 00:29:10;;;;;;;0.90;0.90;;;25.60;58.50;;;;;;5110988;28;20024;-68
2023/10/27 00:31:36;;;;;;;0.93;0.93;;;25.40;58.50;;;;;;5110991;28;20084;-68
2023/10/27 00:34:02;;;;;;;0.93;0.90;;;25.50;58.60;;;;;;5092352;28;20044;-68
2023/10/27 00:36:28;;;;;;;1.38;1.10;;;25.40;58.50;;;;;;5092248;28;20047;-66
2023/10/27 00:38:54;;;;;;;0.90;0.90;;;25.50;58.50;;;;;;5109707;28;20047;-67
2023/10/27 00:41:20;;;;;;;1.77;1.00;;;25.50;58.50;;;;;;5092684;28;20482;-68
2023/10/27 00:43:48;;;;;;;0.93;0.93;;;25.50;58.40;;;;;;5092796;28;20028;-68
2023/10/27 00:46:14;;;;;;;1.27;1.17;;;25.60;58.40;;;;;;5109358;28;20104;-68
2023/10/27 00:48:41;;;;;;;1.27;1.10;;;25.40;58.40;;;;;;5109544;28;20039;-68
2023/10/27 00:51:09;;;;;;;1.25;1.15;;;25.30;58.40;;;;;;5108972;28;20519;-69
2023/10/27 00:53:37;;;;;;;0.95;0.95;;;25.40;58.30;;;;;;5108860;28;20376;-67
2023/10/27 00:56:04;;;;;;;1.38;1.17;;;25.40;58.40;;;;;;5089711;28;20455;-67
2023/10/27 00:58:31;;;;;;;2.75;1.30;;;25.40;58.30;;;;;;5088868;28;20099;-67
2023/10/27 01:01:01;;;;;;;1.42;1.10;;;25.40;58.20;;;;;;5088799;28;20032;-68
2023/10/27 01:03:27;;;;;;;1.02;0.98;;;25.30;58.40;;;;;;5071595;28;20138;-68
2023/10/27 01:05:53;;;;;;;1.38;1.27;;;25.40;58.30;;;;;;5088829;28;20119;-67
2023/10/27 01:08:19;;;;;;;1.60;0.80;;;25.20;58.30;;;;;;5088629;28;20119;-68
2023/10/27 01:10:45;;;;;;;0.90;0.90;;;25.30;58.30;;;;;;5084618;28;20040;-68
2023/10/27 01:13:11;;;;;;;1.13;1.02;;;25.30;58.30;;;;;;5070729;28;20074;-69
2023/10/27 01:15:37;;;;;;;1.08;0.90;;;25.30;58.30;;;;;;5070669;28;20041;-68
2023/10/27 01:18:04;;;;;;;2.03;1.00;;;25.40;58.40;;;;;;5070705;28;20047;-68
2023/10/27 01:20:30;;;;;;;1.27;0.98;;;25.40;58.40;;;;;;5069378;28;20384;-68
2023/10/27 01:22:56;;;;;;;1.23;1.10;;;25.40;58.30;;;;;;5070700;28;20107;-68
2023/10/27 01:25:22;;;;;;;0.80;0.80;;;25.30;58.40;;;;;;5070597;28;20472;-68
2023/10/27 01:27:48;;;;;;;0.85;0.85;;;25.30;58.40;;;;;;5070913;28;20131;-68
2023/10/27 01:30:14;;;;;;;0.70;0.70;;;25.40;58.30;;;;;;5086343;28;20062;-68
2023/10/27 01:32:43;;;;;;;0.80;0.80;;;25.40;58.30;;;;;;5070866;28;20033;-68
2023/10/27 01:35:09;;;;;;;1.13;0.77;;;25.40;58.30;;;;;;5070623;28;20024;-68
2023/10/27 01:37:35;;;;;;;0.75;0.75;;;25.50;58.20;;;;;;5070772;28;20035;-68
2023/10/27 01:40:02;;;;;;;0.95;0.80;;;25.30;58.20;;;;;;5070867;28;20036;-68
2023/10/27 01:42:29;;;;;;;0.80;0.77;;;25.50;58.20;;;;;;5069275;28;20094;-68
2023/10/27 01:44:55;;;;;;;0.70;0.70;;;25.40;58.10;;;;;;5070647;28;20029;-68
2023/10/27 01:47:21;;;;;;;0.82;0.82;;;25.30;58.10;;;;;;5074663;28;20030;-68
2023/10/27 01:49:48;;;;;;;0.65;0.65;;;25.30;58.10;;;;;;5111138;28;20042;-68
2023/10/27 01:52:14;;;;;;;0.98;0.98;;;25.30;58.10;;;;;;5109680;28;20036;-68
2023/10/27 01:54:40;;;;;;;1.20;0.85;;;25.30;58.20;;;;;;5111049;28;20464;-68
2023/10/27 01:57:06;;;;;;;0.70;0.70;;;25.30;58.20;;;;;;5111502;28;20479;-67
2023/10/27 01:59:32;;;;;;;1.02;0.90;;;25.30;58.10;;;;;;5108421;28;20503;-68
2023/10/27 02:01:58;;;;;;;0.80;0.80;;;25.30;58.10;;;;;;5092196;28;20117;-68
2023/10/27 02:04:25;;;;;;;0.80;0.80;;;25.20;58.20;;;;;;5112320;28;20085;-68
2023/10/27 02:06:51;;;;;;;0.98;0.93;;;25.10;58.20;;;;;;5112473;28;20027;-67
2023/10/27 02:09:17;;;;;;;0.80;0.80;;;25.30;58.20;;;;;;5095258;28;20513;-68
2023/10/27 02:11:43;;;;;;;1.45;1.00;;;25.30;58.20;;;;;;5095388;28;20082;-68
2023/10/27 02:14:09;;;;;;;1.20;1.10;;;25.30;58.20;;;;;;5094741;28;20043;-68
2023/10/27 02:16:35;;;;;;;2.03;1.20;;;25.30;58.20;;;;;;5112300;28;20036;-68
2023/10/27 02:19:01;;;;;;;7.72;1.27;;;25.30;58.20;;;;;;5112379;28;20386;-68
2023/10/27 02:21:27;;;;;;;1.42;1.00;;;25.30;58.40;;;;;;5091545;28;20082;-68
2023/10/27 02:23:53;;;;;;;0.80;0.80;;;25.30;58.00;;;;;;5074657;28;20051;-68
2023/10/27 02:26:19;;;;;;;1.38;1.20;;;25.30;58.10;;;;;;5057693;28;20039;-68
2023/10/27 02:28:45;;;;;;;1.27;1.00;;;25.20;58.10;;;;;;5074435;28;20036;-68
2023/10/27 02:31:11;;;;;;;1.33;1.00;;;25.30;58.10;;;;;;5091410;28;20612;-68
2023/10/27 02:33:39;;;;;;;0.77;0.77;;;25.30;58.00;;;;;;5091469;28;20044;-68
2023/10/27 02:36:05;;;;;;;1.73;1.25;;;25.30;58.00;;;;;;5091316;28;20184;-68
2023/10/27 02:38:31;;;;;;;2.22;0.80;;;25.30;58.00;;;;;;5074616;28;20121;-68
2023/10/27 02:40:57;;;;;;;0.77;0.75;;;25.20;58.00;;;;;;5074683;28;20756;-68
2023/10/27 02:43:23;;;;;;;0.85;0.85;;;25.40;57.90;;;;;;5091321;28;20093;-68
2023/10/27 02:46:02;;;;;;;0.73;0.73;;;25.30;57.90;;;;;;5055386;28;20045;-68
2023/10/27 02:48:28;;;;;;;0.60;0.60;;;25.20;57.90;;;;;;5034455;28;20473;-68
2023/10/27 02:50:54;;;;;;;0.60;0.60;;;25.20;57.90;;;;;;5051087;28;20088;-68
2023/10/27 02:53:20;;;;;;;0.52;0.52;;;25.30;57.90;;;;;;5068114;28;20161;-68
2023/10/27 02:55:46;;;;;;;0.77;0.70;;;25.20;57.90;;;;;;5070692;28;20064;-68
2023/10/27 02:58:12;;;;;;;2.08;1.10;;;25.10;58.00;;;;;;5054274;28;20052;-67
2023/10/27 03:00:44;;;;;;;1.17;0.90;;;25.30;58.00;;;;;;5070860;28;20083;-68
2023/10/27 03:03:10;;;;;;;0.93;0.77;;;25.20;57.90;;;;;;5070626;28;20059;-66
2023/10/27 03:05:36;;;;;;;1.15;0.80;;;25.20;57.90;;;;;;5054013;28;20140;-67
2023/10/27 03:08:03;;;;;;;0.85;0.85;;;25.20;57.90;;;;;;5070769;28;20035;-68
2023/10/27 03:10:29;;;;;;;0.90;0.90;;;25.40;57.90;;;;;;5070753;28;20036;-68
2023/10/27 03:12:55;;;;;;;4.22;1.15;;;25.20;57.90;;;;;;5069745;28;20610;-68
2023/10/27 03:15:21;;;;;;;0.80;0.80;;;25.30;57.90;;;;;;5070061;28;20662;-68
2023/10/27 03:17:48;;;;;;;0.85;0.80;;;25.20;57.90;;;;;;5090871;28;20040;-68
2023/10/27 03:20:14;;;;;;;0.98;0.85;;;25.30;57.80;;;;;;5092817;28;20066;-68
2023/10/27 03:22:41;;;;;;;0.77;0.77;;;25.30;57.80;;;;;;5093251;28;20039;-68
2023/10/27 03:25:07;;;;;;;0.90;0.90;;;25.20;57.80;;;;;;5091433;28;20520;-68
2023/10/27 03:27:33;;;;;;;1.02;1.02;;;25.20;57.70;;;;;;5091781;28;20040;-68
2023/10/27 03:29:59;;;;;;;0.80;0.80;;;25.20;57.70;;;;;;5092731;28;20020;-68
2023/10/27 03:32:25;;;;;;;1.25;1.00;;;25.20;57.60;;;;;;5092802;28;20468;-68
2023/10/27 03:34:51;;;;;;;2.97;1.25;;;25.30;57.90;;;;;;5092447;28;20048;-68
2023/10/27 03:37:17;;;;;;;1.38;1.27;;;25.10;57.60;;;;;;5090630;28;20072;-68
2023/10/27 03:39:43;;;;;;;1.52;1.25;;;25.30;57.80;;;;;;5093184;28;20085;-67
2023/10/27 03:42:09;;;;;;;1.38;1.20;;;25.20;57.80;;;;;;5092751;28;20035;-68
2023/10/27 03:44:36;;;;;;;1.00;0.90;;;25.30;57.90;;;;;;5091496;28;20050;-68
2023/10/27 03:47:04;;;;;;;0.88;0.88;;;25.30;57.90;;;;;;5092660;28;20053;-67
2023/10/27 03:49:30;;;;;;;1.70;0.80;;;25.10;57.90;;;;;;5092667;28;20024;-68
2023/10/27 03:51:57;;;;;;;0.85;0.85;;;25.20;57.90;;;;;;5100961;28;20026;-68
2023/10/27 03:54:23;;;;;;;0.80;0.80;;;25.10;57.80;;;;;;5112445;28;20043;-68
2023/10/27 03:56:49;;;;;;;0.90;0.90;;;25.10;57.80;;;;;;5112727;28;20034;-68
2023/10/27 03:59:19;;;;;;;0.80;0.80;;;25.30;57.80;;;;;;5112779;28;20024;-68
2023/10/27 04:01:45;;;;;;;2.35;0.98;;;25.10;57.80;;;;;;5112755;28;20473;-68
2023/10/27 04:04:11;;;;;;;0.82;0.82;;;25.00;57.90;;;;;;5112624;28;20514;-68
2023/10/27 04:06:37;;;;;;;1.55;1.00;;;25.00;57.90;;;;;;5112758;28;20047;-68
2023/10/27 04:09:04;;;;;;;2.05;1.00;;;25.00;57.80;;;;;;5112422;28;20454;-68
2023/10/27 04:11:30;;;;;;;2.60;1.35;;;25.10;57.90;;;;;;5112640;27;20115;-67
2023/10/27 04:13:56;;;;;;;0.68;0.68;;;25.00;58.30;;;;;;5112180;28;20059;-67
2023/10/27 04:16:22;;;;;;;0.95;0.63;;;25.10;59.10;;;;;;5112491;28;20055;-67
2023/10/27 04:18:48;;;;;;;1.00;0.90;;;25.20;57.20;;;;;;5112357;28;20031;-67
2023/10/27 04:21:14;;;;;;;5.20;0.95;;;25.20;55.70;;;;;;5112575;28;20455;-67
2023/10/27 04:23:40;;;;;;;1.35;1.25;;;25.30;53.70;;;;;;5112329;28;20046;-67
2023/10/27 04:26:06;;;;;;;2.45;1.00;;;25.30;52.20;;;;;;5111349;28;20032;-67
2023/10/27 04:28:35;;;;;;;1.10;1.00;;;25.20;51.50;;;;;;5112030;28;20106;-67
2023/10/27 04:31:01;;;;;;;2.45;1.40;;;25.30;51.90;;;;;;5109914;28;20052;-67
2023/10/27 04:33:29;;;;;;;1.60;1.50;;;25.30;51.10;;;;;;5112100;28;20027;-67
2023/10/27 04:35:55;;;;;;;1.60;1.50;;;25.30;50.30;;;;;;5107408;28;20135;-67
2023/10/27 04:38:21;;;;;;;1.10;1.10;;;25.30;50.20;;;;;;5091830;28;20438;-67
2023/10/27 04:40:51;;;;;;;1.48;1.38;;;25.50;50.00;;;;;;5091723;28;20146;-67
2023/10/27 04:43:17;;;;;;;2.20;2.00;;;25.40;49.50;;;;;;5091545;28;20387;-68
2023/10/27 04:45:46;;;;;;;1.52;1.25;;;25.40;48.90;;;;;;5091649;28;20063;-68
2023/10/27 04:48:12;;;;;;;1.05;1.05;;;25.30;48.90;;;;;;5091586;28;20044;-67
2023/10/27 04:50:38;;;;;;;3.33;1.00;;;25.50;48.40;;;;;;5091408;28;20057;-67
2023/10/27 04:53:05;;;;;;;1.23;1.13;;;25.40;48.10;;;;;;5091566;28;20544;-67
2023/10/27 04:55:31;;;;;;;2.45;1.10;;;25.40;47.50;;;;;;5090073;28;20031;-67
2023/10/27 04:57:57;;;;;;;2.00;1.45;;;25.30;47.50;;;;;;5091403;28;20040;-66
2023/10/27 05:00:23;;;;;;;1.25;1.02;;;25.40;47.40;;;;;;5091580;28;20024;-67
2023/10/27 05:02:53;;;;;;;4.55;1.35;;;25.40;47.30;;;;;;5091336;28;20047;-67
2023/10/27 05:05:20;;;;;;;1.38;1.27;;;25.30;47.90;;;;;;5091092;28;20032;-70
2023/10/27 05:07:50;;;;;;;2.42;1.30;;;25.40;48.40;;;;;;5091554;28;20044;-67
2023/10/27 05:10:16;;;;;;;1.38;1.27;;;25.40;48.80;;;;;;5091389;28;20434;-67
2023/10/27 05:12:42;;;;;;;1.98;1.58;;;25.40;49.70;;;;;;5090871;28;20077;-70
2023/10/27 05:15:08;;;;;;;2.60;1.58;;;25.40;50.50;;;;;;5091153;28;20502;-70
2023/10/27 05:17:35;;;;;;;3.20;1.42;;;25.40;54.10;;;;;;5091266;28;20040;-69
2023/10/27 05:20:02;;;;;;;5.28;1.50;;;25.30;52.20;;;;;;5091119;28;20024;-71
2023/10/27 05:22:30;;;;;;;3.13;1.60;;;25.30;52.60;;;;;;5091161;28;20085;-69
2023/10/27 05:24:57;;;;;;;1.75;1.65;;;25.40;52.70;;;;;;5089451;28;20485;-71
2023/10/27 05:27:24;;;;;;;1.85;1.33;;;25.50;53.10;;;;;;5090947;28;20036;-71
2023/10/27 05:29:50;;;;;;;2.03;1.83;;;25.30;53.60;;;;;;5091073;28;20053;-69
2023/10/27 05:32:17;;;;;;;2.47;1.63;;;25.50;54.00;;;;;;5105722;28;20048;-70
2023/10/27 05:34:44;;;;;;;4.35;1.60;;;25.50;54.50;;;;;;5090905;28;20047;-69
2023/10/27 05:37:10;;;;;;;2.03;1.40;;;25.50;54.80;;;;;;5093347;28;20063;-68
2023/10/27 05:39:36;;;;;;;5.10;1.58;;;25.50;55.10;;;;;;5095221;28;20031;-69
2023/10/27 05:42:03;;;;;;;2.05;1.58;;;25.60;55.30;;;;;;5093737;28;20497;-69
2023/10/27 05:44:29;;;;;;;2.97;2.10;;;25.40;55.50;;;;;;5094728;28;20115;-70
2023/10/27 05:46:55;;;;;;;2.03;1.83;;;25.50;55.70;;;;;;5094629;28;20379;-70
2023/10/27 05:49:21;;;;;;;2.45;1.63;;;25.50;55.80;;;;;;5095026;28;20020;-70
2023/10/27 05:51:47;;;;;;;1.98;1.80;;;25.60;56.00;;;;;;5094788;28;20067;-70
2023/10/27 05:54:13;;;;;;;2.08;1.52;;;25.50;56.00;;;;;;5094478;28;20048;-69
2023/10/27 05:56:39;;;;;;;5.78;1.95;;;25.70;56.20;;;;;;5092228;28;20047;-70
2023/10/27 05:59:06;;;;;;;1.58;1.48;;;25.50;56.20;;;;;;5094734;28;20127;-70
2023/10/27 06:01:33;;;;;;;2.40;1.83;;;25.70;56.40;;;;;;5097733;28;20036;-70
2023/10/27 06:03:59;;;;;;;3.50;1.88;;;25.60;56.50;;;;;;5115259;28;20063;-70
2023/10/27 06:06:27;;;;;;;3.58;2.00;;;25.70;56.70;;;;;;5093280;28;20046;-71
2023/10/27 06:08:53;;;;;;;5.88;2.20;;;25.80;61.20;;;;;;5089636;28;20064;-71
2023/10/27 06:11:20;;;;;;;3.20;1.73;;;26.50;62.30;;;;;;5093008;28;20039;-70
2023/10/27 06:13:46;;;;;;;6.95;2.10;;;26.60;62.80;;;;;;5093151;28;20075;-69
2023/10/27 06:16:12;;;;;;;1.88;1.70;;;26.60;58.60;;;;;;5093869;28;20067;-70
2023/10/27 06:18:38;;;;;;;3.08;1.63;;;26.30;57.80;;;;;;5093049;28;20360;-69
2023/10/27 06:21:04;;;;;;;2.95;1.80;;;26.20;57.50;;;;;;5094349;28;20032;-68
2023/10/27 06:23:31;;;;;;;1.92;1.42;;;26.10;57.20;;;;;;5094166;28;20035;-69
2023/10/27 06:25:57;;;;;;;3.47;1.58;;;26.10;57.40;;;;;;5094057;28;20479;-68
2023/10/27 06:28:23;;;;;;;1.80;1.52;;;26.00;56.60;;;;;;5094086;28;20081;-68
2023/10/27 06:30:49;;;;;;;2.47;1.52;;;26.00;56.80;;;;;;5093896;28;20031;-70
2023/10/27 06:33:15;;;;;;;4.70;1.92;;;26.00;56.50;;;;;;5094163;28;20042;-70
2023/10/27 06:35:41;;;;;;;1.88;1.70;;;26.00;56.50;;;;;;5093574;28;20028;-69
2023/10/27 06:38:07;;;;;;;4.68;1.58;;;26.00;56.70;;;;;;5093908;28;20392;-69
2023/10/27 06:40:33;;;;;;;3.63;1.70;;;25.90;56.30;;;;;;5093756;28;20115;-69
2023/10/27 06:42:59;;;;;;;2.63;1.90;;;26.00;56.80;;;;;;5093615;28;20036;-70
2023/10/27 06:45:25;;;;;;;3.38;1.52;;;26.00;56.80;;;;;;5094115;28;20084;-70
2023/10/27 06:47:51;;;;;;;4.50;2.13;;;26.00;56.90;;;;;;5091686;28;20039;-70
2023/10/27 06:50:17;;;;;;;3.78;2.30;;;25.90;56.40;;;;;;5093417;28;20102;-71
2023/10/27 06:52:43;;;;;;;3.05;1.58;;;26.00;56.70;;;;;;5093656;28;20028;-69
2023/10/27 06:55:09;;;;;;;4.03;1.20;;;25.90;56.20;;;;;;5093584;28;20040;-69
2023/10/27 06:57:37;;;;;;;1.27;0.90;;;25.90;56.20;;;;;;5092191;28;20392;-69
2023/10/27 07:00:04;;;;;;;1.50;0.98;;;25.90;56.20;;;;;;5093536;28;20032;-69
2023/10/27 07:02:31;;;;;;;1.13;1.02;;;26.00;56.60;;;;;;5092216;28;20403;-69
2023/10/27 07:04:57;;;;;;;0.70;0.70;;;25.90;56.20;;;;;;5093707;28;20034;-68
2023/10/27 07:07:23;;;;;;;6.05;1.17;;;25.90;56.30;;;;;;5093004;28;20083;-69
2023/10/27 07:09:49;;;;;;;1.30;0.70;;;25.90;56.40;;;;;;5093547;28;20407;-68
2023/10/27 07:12:16;;;;;;;1.23;0.63;;;25.90;57.00;;;;;;5092868;28;20505;-68
2023/10/27 07:14:41;;;;;;;5.13;1.20;;;26.00;58.90;;;;;;5093329;28;20044;-67
2023/10/27 07:17:07;;;;;;;1.92;0.80;;;26.00;59.00;;;;;;5092812;28;20124;-67
2023/10/27 07:19:34;;;;;;;4.15;0.90;;;26.00;58.90;;;;;;5093143;28;20111;-68
2023/10/27 07:22:01;;;;;;;9.95;2.65;;;26.00;59.00;;;;;;5091680;28;20449;-68
2023/10/27 07:24:30;;;;;;;1.40;0.85;;;26.00;59.30;;;;;;5092931;28;20450;-68
2023/10/27 07:26:56;;;;;;;2.03;1.17;;;26.00;59.60;;;;;;5092759;28;20058;-67
2023/10/27 07:29:22;;;;;;;0.70;0.70;;;26.00;59.80;;;;;;5093126;28;20110;-67
2023/10/27 07:31:48;;;;;;;2.20;0.80;;;26.00;59.70;;;;;;5092945;28;20062;-67
2023/10/27 07:34:15;;;;;;;3.45;2.00;;;26.00;59.70;;;;;;5092697;28;20047;-67
2023/10/27 07:36:41;;;;;;;2.75;0.88;;;26.00;60.00;;;;;;5092670;28;20499;-67
2023/10/27 07:39:07;;;;;;;3.80;1.10;;;26.00;60.30;;;;;;5092707;28;20077;-67
2023/10/27 07:41:35;;;;;;;2.55;0.90;;;26.10;60.30;;;;;;5092556;28;20035;-66
2023/10/27 07:44:03;;;;;;;1.27;1.20;;;26.10;60.30;;;;;;5090636;28;20028;-67
2023/10/27 07:46:29;;;;;;;3.03;1.10;;;26.00;60.80;;;;;;5092449;28;20063;-70
2023/10/27 07:48:55;;;;;;;1.42;1.33;;;26.10;60.90;;;;;;5092570;28;20063;-71
2023/10/27 07:51:22;;;;;;;1.80;1.50;;;26.10;60.30;;;;;;5092644;28;20032;-69
2023/10/27 07:53:47;;;;;;;3.47;2.08;;;25.90;59.30;;;;;;5092477;28;20059;-69
2023/10/27 07:56:13;;;;;;;5.75;2.10;;;26.00;59.10;;;;;;5100343;28;20055;-69
2023/10/27 07:58:40;;;;;;;2.00;1.80;;;26.00;58.90;;;;;;5113073;28;20474;-72
2023/10/27 08:01:06;;;;;;;3.25;2.13;;;26.00;58.80;;;;;;5112955;28;20546;-70
2023/10/27 08:03:33;;;;;;;4.35;2.10;;;26.00;58.70;;;;;;5112858;28;20495;-69
2023/10/27 08:06:00;;;;;;;2.33;1.83;;;26.00;58.50;;;;;;5112698;28;20047;-69
2023/10/27 08:08:26;;;;;;;4.97;1.80;;;25.90;57.80;;;;;;5092044;28;20039;-69
2023/10/27 08:10:52;;;;;;;1.67;1.35;;;25.90;57.50;;;;;;5089741;28;20487;-69
2023/10/27 08:13:20;;;;;;;2.80;1.40;;;25.90;57.50;;;;;;5089413;28;20101;-69
2023/10/27 08:15:46;;;;;;;1.52;1.40;;;26.00;61.00;;;;;;5089710;28;20036;-69
2023/10/27 08:18:16;;;;;;;1.70;1.08;;;26.20;61.50;;;;;;5089142;28;20044;-69
2023/10/27 08:20:43;;;;;;;11.77;2.92;;;26.60;62.60;;;;;;5089163;28;20024;-69
2023/10/27 08:23:09;;;;;;;12.77;3.55;;;26.60;63.10;;;;;;5088669;28;20036;-69
2023/10/27 08:25:36;;;;;;;2.20;1.70;;;26.80;70.40;;;;;;5089091;28;20039;-69
2023/10/27 08:28:06;;;;;;;1.88;1.77;;;27.00;72.30;;;;;;5089038;28;20048;-71
2023/10/27 08:30:33;;;;;;;5.35;1.98;;;27.00;64.60;;;;;;5089608;28;20032;-71
2023/10/27 08:32:59;;;;;;;3.88;1.92;;;26.80;61.90;;;;;;5089377;28;20085;-70
2023/10/27 08:35:25;;;;;;;6.45;1.67;;;26.70;60.40;;;;;;5088866;28;20553;-70
2023/10/27 08:37:51;;;;;;;2.45;1.70;;;26.70;59.20;;;;;;5089093;28;20038;-70
2023/10/27 08:40:17;;;;;;;1.63;1.40;;;26.60;58.50;;;;;;5091054;28;20050;-71
2023/10/27 08:42:49;;;;;;;1.13;1.02;;;26.50;58.10;;;;;;5091718;28;20036;-71
2023/10/27 08:45:15;;;;;;;3.55;1.13;;;26.50;57.80;;;;;;5091816;28;20074;-72
2023/10/27 08:47:42;;;;;;;1.88;1.45;;;26.50;57.60;;;;;;5091571;28;20081;-71
2023/10/27 08:50:09;;;;;;;1.88;1.05;;;26.50;57.10;;;;;;5091532;28;20028;-72
2023/10/27 08:52:35;;;;;;;3.53;1.40;;;26.30;57.10;;;;;;5091846;28;20027;-70
2023/10/27 08:55:06;;;;;;;2.15;1.30;;;26.30;57.20;;;;;;5091568;28;20040;-69
2023/10/27 08:57:33;;;;;;;2.10;1.45;;;26.50;57.10;;;;;;5091671;28;20034;-72
2023/10/27 08:59:59;;;;;;;6.65;1.33;;;26.30;54.90;;;;;;5091463;28;20443;-70
2023/10/27 09:02:32;;;;;;;2.60;1.55;;;26.30;55.50;;;;;;5089143;28;20079;-69
2023/10/27 09:05:09;;;;;;;2.33;1.48;;;26.20;54.40;;;;;;5091734;28;20638;-69
2023/10/27 09:07:36;;;;;;;2.40;1.25;;;26.30;54.50;;;;;;5090903;28;20047;-70
2023/10/27 09:10:07;;;;;;;2.55;1.67;;;26.40;54.20;;;;;;5091246;28;20071;-70
2023/10/27 09:12:36;;;;;;;0.77;0.77;;;26.30;53.70;;;;;;5090309;28;20475;-71
2023/10/27 09:15:05;;;;;;;1.13;1.08;;;26.30;53.30;;;;;;5091262;28;20048;-72
2023/10/27 09:17:58;;;;;;;2.22;1.48;;;26.40;52.90;;;;;;5091431;28;20032;-70
2023/10/27 09:20:25;;;;;;;2.05;1.02;;;26.30;52.60;;;;;;5089389;28;20035;-70
2023/10/27 09:23:05;;;;;;;1.40;1.30;;;26.20;52.60;;;;;;5088957;28;20032;-71
2023/10/27 09:25:32;;;;;;;1.83;1.40;;;26.30;52.30;;;;;;5091091;28;20053;-70
2023/10/27 09:28:01;;;;;;;2.55;1.20;;;26.10;52.20;;;;;;5091168;28;20097;-70
2023/10/27 09:30:32;;;;;;;1.63;1.25;;;26.20;51.80;;;;;;5090260;28;20430;-69
2023/10/27 09:33:23;;;;;;;7.53;2.80;;;26.30;52.10;;;;;;5108846;28;20081;-70
2023/10/27 09:35:53;;;;;;;6.40;1.77;;;26.50;57.90;;;;;;5088443;28;20044;-69
2023/10/27 09:38:22;;;;;;;1.92;1.42;;;27.30;61.80;;;;;;5095197;28;20100;-70
2023/10/27 09:40:48;;;;;;;6.63;1.60;;;27.50;54.20;;;;;;5108631;28;20474;-69
2023/10/27 09:43:15;;;;;;;3.55;1.77;;;27.30;52.30;;;;;;5108773;28;20038;-68
2023/10/27 09:45:46;;;;;;;3.88;1.88;;;27.00;51.60;;;;;;5108935;28;20035;-69
2023/10/27 09:48:14;;;;;;;2.63;1.48;;;26.90;51.60;;;;;;5108913;28;20148;-69
2023/10/27 09:50:45;;;;;;;1.90;1.65;;;26.90;51.60;;;;;;5108699;28;20483;-69
2023/10/27 09:53:14;;;;;;;2.63;1.43;;;27.10;57.90;;;;;;5108844;28;20046;-68
2023/10/27 09:55:42;;;;;;;2.90;1.30;;;27.50;58.50;;;;;;5108791;28;20044;-69
2023/10/27 09:58:08;;;;;;;3.08;1.20;;;27.50;58.20;;;;;;5116473;28;20031;-72
2023/10/27 10:00:37;;;;;;;1.20;1.20;;;27.50;59.30;;;;;;5126460;28;20478;-69
2023/10/27 10:03:06;;;;;;;1.75;1.65;;;27.40;59.70;;;;;;5109859;28;20042;-70
2023/10/27 10:06:12;;;;;;;4.65;1.90;;;27.40;60.50;;;;;;5090895;28;20524;-70
2023/10/27 10:08:40;;;;;;;2.55;1.70;;;27.30;56.50;;;;;;5089972;28;20059;-69
2023/10/27 10:11:18;;;;;;;1.58;1.48;;;27.10;54.40;;;;;;5090310;28;20029;-70
2023/10/27 10:13:46;;;;;;;1.40;1.05;;;27.20;52.50;;;;;;5090465;28;20044;-69
2023/10/27 10:16:13;;;;;;;1.92;1.30;;;27.10;52.30;;;;;;5089310;28;20048;-70
2023/10/27 10:18:48;;;;;;;1.67;1.30;;;27.10;51.70;;;;;;5090695;28;20771;-70
2023/10/27 10:21:39;;;;;;;1.00;1.00;;;27.00;51.70;;;;;;5089042;28;20073;-69
2023/10/27 10:24:09;;;;;;;2.00;1.50;;;27.00;51.90;;;;;;5092418;28;20059;-69
2023/10/27 10:27:07;;;;;;;3.58;1.45;;;26.80;50.90;;;;;;5094104;28;20040;-69
2023/10/27 10:29:33;;;;;;;3.53;1.40;;;27.00;51.90;;;;;;5093989;28;20503;-69
2023/10/27 10:32:31;;;;;;;2.67;1.30;;;27.00;52.00;;;;;;5093981;28;20024;-69
2023/10/27 10:35:24;;;;;;;3.80;1.17;;;26.80;51.60;;;;;;5094126;28;20047;-69
2023/10/27 10:37:54;;;;;;;2.40;1.65;;;26.80;51.70;;;;;;5070980;28;20052;-68
2023/10/27 10:40:23;;;;;;;3.40;1.55;;;26.80;51.80;;;;;;5070684;28;20390;-70
2023/10/27 10:43:16;;;;;;;5.15;1.10;;;26.80;51.90;;;;;;5051085;28;20051;-69
2023/10/27 10:45:53;;;;;;;1.17;1.08;;;26.70;52.30;;;;;;5051129;28;20532;-67
2023/10/27 10:48:21;;;;;;;2.35;1.52;;;26.70;52.60;;;;;;5050867;28;20041;-69
2023/10/27 10:50:49;;;;;;;2.05;1.27;;;26.70;52.90;;;;;;5067526;28;20056;-70
2023/10/27 10:53:17;;;;;;;2.65;1.30;;;26.50;53.10;;;;;;5033692;28;20053;-69
2023/10/27 10:55:48;;;;;;;1.15;1.05;;;26.60;53.00;;;;;;5050827;28;20139;-68
2023/10/27 10:58:22;;;;;;;3.25;1.25;;;27.00;53.60;;;;;;5050691;28;20436;-69
2023/10/27 11:00:49;;;;;;;4.85;1.48;;;26.60;53.30;;;;;;5050523;28;20083;-68
2023/10/27 11:03:16;;;;;;;1.63;1.17;;;26.50;53.40;;;;;;5050605;28;20114;-68
2023/10/27 11:05:42;;;;;;;1.38;1.27;;;26.50;53.50;;;;;;5050741;28;20123;-69
2023/10/27 11:08:08;;;;;;;1.95;1.02;;;26.50;53.70;;;;;;5067228;28;20186;-69
2023/10/27 11:10:35;;;;;;;2.70;1.63;;;26.50;53.80;;;;;;5050610;28;20507;-69
2023/10/27 11:13:07;;;;;;;0.85;0.85;;;26.50;53.80;;;;;;5050406;28;20068;-69
2023/10/27 11:15:49;;;;;;;1.50;1.00;;;26.60;53.90;;;;;;5078859;28;20507;-70
2023/10/27 11:18:16;;;;;;;2.25;1.55;;;26.40;53.90;;;;;;5090675;28;20056;-68
2023/10/27 11:20:43;;;;;;;1.52;1.40;;;26.30;54.00;;;;;;5093051;28;20154;-70
2023/10/27 11:23:12;;;;;;;2.30;1.25;;;26.40;55.90;;;;;;5093327;28;20036;-70
2023/10/27 11:25:39;;;;;;;1.23;1.10;;;26.60;54.10;;;;;;5093067;28;20081;-70
2023/10/27 11:28:26;;;;;;;3.55;1.23;;;26.60;52.60;;;;;;5093258;28;20036;-70
2023/10/27 11:31:19;;;;;;;2.53;1.20;;;26.60;54.40;;;;;;5091679;28;20093;-69
2023/10/27 11:34:05;;;;;;;1.33;1.23;;;26.60;53.80;;;;;;5090101;28;20123;-70
2023/10/27 11:36:34;;;;;;;1.38;1.27;;;26.60;52.30;;;;;;5093415;28;20128;-70
2023/10/27 11:39:20;;;;;;;1.48;1.35;;;26.60;53.40;;;;;;5091425;28;20032;-69
2023/10/27 11:41:50;;;;;;;1.75;1.30;;;26.60;53.10;;;;;;5093062;28;20036;-70
2023/10/27 11:44:17;;;;;;;1.33;1.23;;;26.60;53.10;;;;;;5107364;28;20127;-69
2023/10/27 11:46:51;;;;;;;1.17;0.95;;;26.60;53.00;;;;;;5091049;28;20443;-70
2023/10/27 11:49:17;;;;;;;0.63;0.63;;;26.70;53.10;;;;;;5091376;28;20106;-70
2023/10/27 11:51:47;;;;;;;0.98;0.90;;;26.60;53.10;;;;;;5092560;28;20036;-70
2023/10/27 11:54:15;;;;;;;1.42;1.10;;;26.70;53.10;;;;;;5092870;28;20025;-69
2023/10/27 11:56:42;;;;;;;3.15;1.08;;;26.70;52.80;;;;;;5098929;28;20035;-69
2023/10/27 11:59:10;;;;;;;3.13;1.02;;;26.70;52.50;;;;;;5112696;28;20031;-68
2023/10/27 12:01:39;;;;;;;3.40;1.13;;;26.60;52.50;;;;;;5112764;28;20649;-67
2023/10/27 12:04:07;;;;;;;1.10;1.00;;;26.60;52.20;;;;;;5112724;28;20199;-68
2023/10/27 12:06:34;;;;;;;4.55;1.55;;;26.50;51.90;;;;;;5100825;28;20398;-70
2023/10/27 12:09:00;;;;;;;3.05;1.23;;;26.60;52.00;;;;;;5092582;28;20379;-69
2023/10/27 12:11:29;;;;;;;1.42;1.25;;;26.50;52.10;;;;;;5092321;28;20089;-71
2023/10/27 12:13:55;;;;;;;7.47;2.45;;;26.50;52.50;;;;;;5092014;28;20526;-70
2023/10/27 12:16:22;;;;;;;1.70;1.27;;;26.50;53.20;;;;;;5092265;28;20067;-70
2023/10/27 12:18:49;;;;;;;4.18;1.25;;;26.60;54.90;;;;;;5092419;28;20040;-70
2023/10/27 12:21:15;;;;;;;1.25;1.15;;;26.50;54.40;;;;;;5091683;28;20119;-69
2023/10/27 12:23:41;;;;;;;1.45;0.93;;;26.50;54.10;;;;;;5092207;28;20442;-69
2023/10/27 12:26:07;;;;;;;2.75;1.35;;;26.60;53.90;;;;;;5092221;28;20028;-69
2023/10/27 12:28:34;;;;;;;4.82;1.40;;;26.50;54.00;;;;;;5091995;28;20522;-71
2023/10/27 12:31:00;;;;;;;1.58;1.02;;;26.50;53.90;;;;;;5089956;28;20031;-71
2023/10/27 12:33:26;;;;;;;1.25;1.15;;;26.50;53.90;;;;;;5091439;28;20039;-70
2023/10/27 12:35:52;;;;;;;2.85;1.15;;;26.50;53.80;;;;;;5091610;28;20039;-71
2023/10/27 12:38:19;;;;;;;1.42;1.20;;;26.30;53.80;;;;;;5101379;28;20549;-71
2023/10/27 12:40:47;;;;;;;3.22;1.23;;;26.40;53.90;;;;;;5091690;28;20024;-72
2023/10/27 12:43:14;;;;;;;5.22;1.17;;;26.50;53.90;;;;;;5088003;28;20040;-71
2023/10/27 12:45:45;;;;;;;3.40;1.23;;;26.40;54.00;;;;;;5090523;28;20032;-71
2023/10/27 12:48:11;;;;;;;2.60;1.30;;;26.50;54.20;;;;;;5091469;28;20406;-72
2023/10/27 12:50:37;;;;;;;2.70;0.93;;;26.40;54.20;;;;;;5091291;28;20031;-72
2023/10/27 12:53:04;;;;;;;0.70;0.70;;;26.40;54.20;;;;;;5091334;28;20039;-71